createdAt,value
2019-03-27T00:00:07.873Z,8.84
2019-03-27T00:01:07.962Z,8.84
2019-03-27T00:02:08.053Z,8.86
2019-03-27T00:03:08.142Z,8.84
2019-03-27T00:04:08.232Z,8.81
2019-03-27T00:05:08.321Z,8.75
2019-03-27T00:06:08.410Z,8.78
2019-03-27T00:07:08.542Z,8.83
2019-03-27T00:08:08.582Z,8.69
2019-03-27T00:09:08.666Z,8.55
2019-03-27T00:10:08.760Z,8.66
2019-03-27T00:11:08.841Z,8.63
2019-03-27T00:12:08.933Z,8.69
2019-03-27T00:13:09.021Z,8.69
2019-03-27T00:14:09.109Z,8.48
2019-03-27T00:15:12.976Z,8.42
2019-03-27T00:16:09.290Z,8.29
2019-03-27T00:17:09.384Z,8.44
2019-03-27T00:18:09.486Z,8.35
2019-03-27T00:19:09.550Z,8.36
2019-03-27T00:20:09.641Z,8.32
2019-03-27T00:21:09.729Z,8.30
2019-03-27T00:22:09.819Z,8.21
2019-03-27T00:23:09.908Z,8.18
2019-03-27T00:24:09.998Z,8.08
2019-03-27T00:25:10.095Z,8.08
2019-03-27T00:26:10.178Z,8.21
2019-03-27T00:27:10.268Z,8.25
2019-03-27T00:28:10.360Z,8.18
2019-03-27T00:29:10.450Z,8.22
2019-03-27T00:30:10.542Z,8.36
2019-03-27T00:31:12.020Z,8.30
2019-03-27T00:32:10.708Z,8.32
2019-03-27T00:33:10.800Z,8.32
2019-03-27T00:34:10.891Z,8.33
2019-03-27T00:35:10.982Z,8.42
2019-03-27T00:36:11.073Z,8.39
2019-03-27T00:37:11.161Z,8.32
2019-03-27T00:38:11.252Z,8.45
2019-03-27T00:39:11.345Z,8.44
2019-03-27T00:40:11.429Z,8.47
2019-03-27T00:41:11.515Z,8.51
2019-03-27T00:42:11.602Z,8.50
2019-03-27T00:43:11.691Z,8.47
2019-03-27T00:44:11.780Z,8.48
2019-03-27T00:45:25.453Z,8.53
2019-03-27T00:46:11.962Z,8.47
2019-03-27T00:47:12.049Z,8.48
2019-03-27T00:48:12.138Z,8.53
2019-03-27T00:49:12.228Z,8.51
2019-03-27T00:50:12.322Z,8.50
2019-03-27T00:51:12.406Z,8.48
2019-03-27T00:52:12.496Z,8.53
2019-03-27T00:53:12.591Z,8.53
2019-03-27T00:54:12.695Z,8.48
2019-03-27T00:55:12.787Z,8.54
2019-03-27T00:56:12.875Z,8.51
2019-03-27T00:57:12.965Z,8.47
2019-03-27T00:58:13.058Z,8.45
2019-03-27T00:59:13.145Z,8.48
2019-03-27T01:00:13.235Z,8.50
2019-03-27T01:01:13.320Z,8.44
2019-03-27T01:02:13.407Z,8.51
2019-03-27T01:03:13.497Z,8.47
2019-03-27T01:04:13.585Z,8.45
2019-03-27T01:05:13.676Z,8.42
2019-03-27T01:06:13.767Z,8.44
2019-03-27T01:07:13.895Z,8.42
2019-03-27T01:08:13.938Z,8.48
2019-03-27T01:09:14.021Z,8.47
2019-03-27T01:10:14.113Z,8.39
2019-03-27T01:11:14.201Z,8.44
2019-03-27T01:12:14.291Z,8.45
2019-03-27T01:13:14.379Z,8.45
2019-03-27T01:14:14.474Z,8.44
2019-03-27T01:15:14.563Z,8.51
2019-03-27T01:16:14.652Z,8.45
2019-03-27T01:17:14.743Z,8.44
2019-03-27T01:18:14.833Z,8.48
2019-03-27T01:19:14.919Z,8.42
2019-03-27T01:20:15.012Z,8.37
2019-03-27T01:21:15.099Z,8.25
2019-03-27T01:22:15.189Z,8.22
2019-03-27T01:23:15.279Z,8.21
2019-03-27T01:24:15.369Z,8.25
2019-03-27T01:25:15.453Z,8.28
2019-03-27T01:26:15.548Z,8.26
2019-03-27T01:27:15.636Z,8.21
2019-03-27T01:28:15.726Z,8.18
2019-03-27T01:29:15.815Z,8.14
2019-03-27T01:30:15.908Z,8.21
2019-03-27T01:31:15.993Z,8.20
2019-03-27T01:32:16.086Z,8.26
2019-03-27T01:33:16.174Z,8.22
2019-03-27T01:34:16.265Z,8.21
2019-03-27T01:35:16.353Z,8.21
2019-03-27T01:36:16.438Z,8.11
2019-03-27T01:37:16.541Z,8.08
2019-03-27T01:38:16.628Z,8.15
2019-03-27T01:39:16.719Z,8.14
2019-03-27T01:40:16.808Z,8.11
2019-03-27T01:41:16.898Z,8.22
2019-03-27T01:42:17.017Z,8.15
2019-03-27T01:43:17.111Z,8.18
2019-03-27T01:44:17.195Z,8.25
2019-03-27T01:45:17.332Z,8.29
2019-03-27T01:46:17.369Z,8.25
2019-03-27T01:47:17.458Z,8.26
2019-03-27T01:48:17.547Z,8.21
2019-03-27T01:49:17.636Z,8.22
2019-03-27T01:50:17.724Z,8.29
2019-03-27T01:51:17.812Z,8.28
2019-03-27T01:52:17.896Z,8.25
2019-03-27T01:53:17.995Z,8.21
2019-03-27T01:54:18.082Z,8.22
2019-03-27T01:55:18.167Z,8.37
2019-03-27T01:56:18.255Z,8.21
2019-03-27T01:57:18.355Z,8.22
2019-03-27T01:58:18.444Z,8.21
2019-03-27T01:59:18.552Z,8.26
2019-03-27T02:00:18.623Z,8.22
2019-03-27T02:01:18.714Z,8.29
2019-03-27T02:02:18.804Z,8.21
2019-03-27T02:03:18.896Z,8.22
2019-03-27T02:04:18.982Z,8.11
2019-03-27T02:05:19.077Z,8.02
2019-03-27T02:06:19.165Z,8.03
2019-03-27T02:07:19.256Z,8.07
2019-03-27T02:08:19.346Z,7.97
2019-03-27T02:09:19.436Z,8.00
2019-03-27T02:10:19.530Z,8.03
2019-03-27T02:11:19.620Z,8.04
2019-03-27T02:12:19.705Z,8.03
2019-03-27T02:13:19.796Z,8.08
2019-03-27T02:14:19.886Z,8.10
2019-03-27T02:15:19.972Z,8.14
2019-03-27T02:16:20.061Z,8.14
2019-03-27T02:17:20.153Z,8.10
2019-03-27T02:18:20.242Z,8.10
2019-03-27T02:19:20.331Z,8.11
2019-03-27T02:20:20.416Z,8.11
2019-03-27T02:21:20.516Z,8.08
2019-03-27T02:22:20.621Z,8.17
2019-03-27T02:23:20.714Z,8.12
2019-03-27T02:24:20.802Z,8.18
2019-03-27T02:25:20.900Z,8.10
2019-03-27T02:26:20.991Z,8.15
2019-03-27T02:27:21.078Z,8.17
2019-03-27T02:28:21.171Z,8.18
2019-03-27T02:29:21.259Z,8.20
2019-03-27T02:30:21.360Z,8.14
2019-03-27T02:31:21.464Z,8.15
2019-03-27T02:32:21.536Z,8.12
2019-03-27T02:33:21.625Z,8.11
2019-03-27T02:34:21.711Z,8.10
2019-03-27T02:35:21.802Z,8.11
2019-03-27T02:36:21.892Z,8.08
2019-03-27T02:37:21.985Z,8.14
2019-03-27T02:38:22.074Z,8.15
2019-03-27T02:39:22.153Z,8.14
2019-03-27T02:40:22.256Z,8.12
2019-03-27T02:41:22.354Z,8.20
2019-03-27T02:42:22.437Z,8.02
2019-03-27T02:43:22.531Z,8.11
2019-03-27T02:44:22.611Z,8.21
2019-03-27T02:45:22.727Z,8.10
2019-03-27T02:46:24.904Z,8.12
2019-03-27T02:47:22.913Z,8.17
2019-03-27T02:48:22.998Z,8.02
2019-03-27T02:49:23.086Z,8.10
2019-03-27T02:50:23.172Z,8.03
2019-03-27T02:51:23.264Z,8.07
2019-03-27T02:52:23.356Z,8.04
2019-03-27T02:53:23.439Z,8.10
2019-03-27T02:54:23.519Z,7.99
2019-03-27T02:55:23.613Z,7.93
2019-03-27T02:56:23.705Z,7.85
2019-03-27T02:57:23.790Z,7.84
2019-03-27T02:58:23.879Z,7.87
2019-03-27T02:59:23.970Z,7.89
2019-03-27T03:00:24.054Z,7.87
2019-03-27T03:01:24.142Z,7.89
2019-03-27T03:02:24.246Z,7.81
2019-03-27T03:03:24.323Z,7.78
2019-03-27T03:04:24.413Z,7.81
2019-03-27T03:05:24.500Z,7.81
2019-03-27T03:06:24.576Z,7.87
2019-03-27T03:09:07.192Z,7.84
2019-03-27T03:10:07.279Z,7.82
2019-03-27T03:11:07.374Z,7.78
2019-03-27T03:12:07.460Z,7.79
2019-03-27T03:13:07.548Z,7.85
2019-03-27T03:14:07.637Z,7.81
2019-03-27T03:15:07.719Z,7.69
2019-03-27T03:16:07.805Z,7.59
2019-03-27T03:17:07.894Z,7.53
2019-03-27T03:18:07.983Z,7.42
2019-03-27T03:19:08.070Z,7.16
2019-03-27T03:20:08.158Z,7.12
2019-03-27T03:21:08.247Z,7.02
2019-03-27T03:22:08.339Z,7.02
2019-03-27T03:23:08.419Z,7.01
2019-03-27T03:24:08.536Z,6.94
2019-03-27T03:25:08.657Z,7.05
2019-03-27T03:26:08.734Z,7.13
2019-03-27T03:27:08.823Z,7.13
2019-03-27T03:28:08.913Z,7.22
2019-03-27T03:29:09.005Z,7.23
2019-03-27T03:30:09.089Z,7.23
2019-03-27T03:31:09.181Z,7.29
2019-03-27T03:32:09.281Z,7.32
2019-03-27T03:33:09.354Z,7.38
2019-03-27T03:34:09.481Z,7.35
2019-03-27T03:35:09.606Z,7.42
2019-03-27T03:36:09.678Z,7.38
2019-03-27T03:37:09.768Z,7.40
2019-03-27T03:38:09.859Z,7.44
2019-03-27T03:39:09.947Z,7.35
2019-03-27T03:40:10.037Z,7.31
2019-03-27T03:41:10.128Z,7.24
2019-03-27T03:42:10.217Z,7.17
2019-03-27T03:43:10.309Z,7.22
2019-03-27T03:44:10.395Z,7.23
2019-03-27T03:45:10.489Z,7.20
2019-03-27T03:46:10.564Z,7.31
2019-03-27T03:47:10.650Z,7.22
2019-03-27T03:48:10.737Z,7.22
2019-03-27T03:49:10.827Z,7.19
2019-03-27T03:50:10.916Z,7.22
2019-03-27T03:51:11.009Z,7.26
2019-03-27T03:52:11.094Z,7.20
2019-03-27T03:53:11.183Z,7.19
2019-03-27T03:54:11.269Z,7.08
2019-03-27T03:55:11.356Z,7.15
2019-03-27T03:56:11.444Z,7.05
2019-03-27T03:57:11.557Z,7.08
2019-03-27T03:58:11.617Z,6.94
2019-03-27T03:59:11.699Z,6.99
2019-03-27T04:00:11.798Z,7.04
2019-03-27T04:01:11.889Z,6.99
2019-03-27T04:02:11.981Z,6.99
2019-03-27T04:03:12.069Z,7.04
2019-03-27T04:04:12.155Z,7.07
2019-03-27T04:05:12.259Z,6.95
2019-03-27T04:06:12.333Z,6.90
2019-03-27T04:07:12.425Z,7.01
2019-03-27T04:08:12.536Z,7.05
2019-03-27T04:09:12.623Z,7.15
2019-03-27T04:10:12.688Z,7.16
2019-03-27T04:11:12.784Z,7.22
2019-03-27T04:12:12.872Z,7.12
2019-03-27T04:13:12.961Z,7.12
2019-03-27T04:14:13.049Z,7.22
2019-03-27T04:15:13.138Z,7.26
2019-03-27T04:16:13.228Z,7.24
2019-03-27T04:17:17.382Z,7.22
2019-03-27T04:18:13.408Z,7.23
2019-03-27T04:19:13.497Z,7.20
2019-03-27T04:20:13.595Z,7.19
2019-03-27T04:21:13.647Z,7.26
2019-03-27T04:22:13.741Z,7.38
2019-03-27T04:23:13.825Z,7.35
2019-03-27T04:24:13.916Z,7.40
2019-03-27T04:25:14.011Z,7.41
2019-03-27T04:26:14.093Z,7.29
2019-03-27T04:27:14.181Z,7.32
2019-03-27T04:28:14.271Z,7.35
2019-03-27T04:29:14.398Z,7.23
2019-03-27T04:30:14.503Z,7.24
2019-03-27T04:31:14.534Z,7.34
2019-03-27T04:32:14.623Z,7.24
2019-03-27T04:33:14.739Z,7.22
2019-03-27T04:34:14.801Z,7.19
2019-03-27T04:35:14.887Z,7.16
2019-03-27T04:36:14.976Z,7.12
2019-03-27T04:37:15.069Z,7.02
2019-03-27T04:38:15.156Z,7.04
2019-03-27T04:39:15.244Z,7.05
2019-03-27T04:40:15.336Z,6.80
2019-03-27T04:41:15.462Z,6.83
2019-03-27T04:42:15.522Z,6.87
2019-03-27T04:43:15.598Z,6.86
2019-03-27T04:45:58.215Z,7.04
2019-03-27T04:46:58.343Z,6.94
2019-03-27T04:47:58.400Z,7.02
2019-03-27T04:48:58.484Z,7.05
2019-03-27T04:49:58.575Z,7.16
2019-03-27T04:50:58.652Z,7.16
2019-03-27T04:51:58.749Z,7.12
2019-03-27T04:52:58.838Z,7.24
2019-03-27T04:53:58.925Z,7.22
2019-03-27T04:54:59.012Z,7.20
2019-03-27T04:55:59.100Z,7.17
2019-03-27T04:56:59.187Z,7.15
2019-03-27T04:57:59.277Z,7.05
2019-03-27T04:58:59.373Z,7.12
2019-03-27T04:59:59.462Z,7.04
2019-03-27T05:00:59.547Z,6.89
2019-03-27T05:01:59.632Z,6.91
2019-03-27T05:02:59.724Z,6.99
2019-03-27T05:03:59.814Z,7.04
2019-03-27T05:04:59.901Z,7.07
2019-03-27T05:05:59.997Z,7.16
2019-03-27T05:07:00.081Z,7.08
2019-03-27T05:08:00.172Z,7.16
2019-03-27T05:09:00.256Z,7.01
2019-03-27T05:10:00.366Z,7.05
2019-03-27T05:11:00.434Z,7.04
2019-03-27T05:12:00.558Z,7.12
2019-03-27T05:13:00.625Z,7.04
2019-03-27T05:14:00.700Z,7.02
2019-03-27T05:15:00.788Z,7.02
2019-03-27T05:16:00.878Z,6.99
2019-03-27T05:17:00.967Z,7.02
2019-03-27T05:18:01.055Z,7.04
2019-03-27T05:19:01.144Z,7.13
2019-03-27T05:20:01.233Z,7.17
2019-03-27T05:21:01.319Z,7.16
2019-03-27T05:22:01.405Z,7.12
2019-03-27T05:23:01.503Z,7.15
2019-03-27T05:24:01.579Z,7.02
2019-03-27T05:25:01.665Z,7.12
2019-03-27T05:26:01.751Z,7.09
2019-03-27T05:27:01.839Z,7.19
2019-03-27T05:28:01.934Z,7.15
2019-03-27T05:29:02.019Z,7.16
2019-03-27T05:30:02.124Z,7.07
2019-03-27T05:31:02.214Z,7.17
2019-03-27T05:32:02.304Z,7.07
2019-03-27T05:33:02.392Z,7.08
2019-03-27T05:34:02.482Z,7.02
2019-03-27T05:35:02.566Z,7.02
2019-03-27T05:36:02.689Z,7.01
2019-03-27T05:37:02.756Z,7.01
2019-03-27T05:38:02.849Z,7.15
2019-03-27T05:39:02.936Z,7.17
2019-03-27T05:40:03.030Z,7.15
2019-03-27T05:41:03.115Z,7.19
2019-03-27T05:42:03.204Z,7.20
2019-03-27T05:43:03.291Z,7.24
2019-03-27T05:44:03.385Z,7.24
2019-03-27T05:45:03.475Z,7.24
2019-03-27T05:46:03.578Z,7.27
2019-03-27T05:47:03.662Z,7.26
2019-03-27T05:48:03.744Z,7.32
2019-03-27T05:49:03.835Z,7.41
2019-03-27T05:50:03.923Z,7.34
2019-03-27T05:51:04.020Z,7.40
2019-03-27T05:52:04.106Z,7.40
2019-03-27T05:53:04.191Z,7.34
2019-03-27T05:54:04.276Z,7.35
2019-03-27T05:55:04.378Z,7.26
2019-03-27T05:56:04.464Z,7.29
2019-03-27T05:57:04.592Z,7.22
2019-03-27T05:58:04.681Z,7.29
2019-03-27T05:59:04.761Z,7.22
2019-03-27T06:00:04.854Z,7.26
2019-03-27T06:01:04.938Z,7.17
2019-03-27T06:02:05.029Z,7.20
2019-03-27T06:03:05.116Z,7.22
2019-03-27T06:04:05.196Z,7.17
2019-03-27T06:05:05.285Z,7.16
2019-03-27T06:06:05.410Z,7.24
2019-03-27T06:07:05.461Z,7.17
2019-03-27T06:08:05.536Z,7.17
2019-03-27T06:09:05.678Z,7.19
2019-03-27T06:10:05.765Z,7.16
2019-03-27T06:11:05.854Z,7.13
2019-03-27T06:12:05.944Z,7.07
2019-03-27T06:13:06.033Z,7.12
2019-03-27T06:14:06.121Z,7.01
2019-03-27T06:15:06.210Z,7.01
2019-03-27T06:16:06.301Z,6.99
2019-03-27T06:17:06.393Z,7.04
2019-03-27T06:18:13.011Z,6.91
2019-03-27T06:19:06.599Z,7.04
2019-03-27T06:20:06.759Z,7.04
2019-03-27T06:21:06.779Z,7.05
2019-03-27T06:22:06.861Z,7.04
2019-03-27T06:23:06.949Z,7.22
2019-03-27T06:24:07.040Z,7.20
2019-03-27T06:25:07.130Z,7.26
2019-03-27T06:26:07.222Z,7.24
2019-03-27T06:27:07.303Z,7.26
2019-03-27T06:28:07.391Z,7.24
2019-03-27T06:29:07.494Z,7.29
2019-03-27T06:30:07.576Z,7.47
2019-03-27T06:31:07.665Z,7.44
2019-03-27T06:32:07.753Z,7.42
2019-03-27T06:33:07.842Z,7.55
2019-03-27T06:34:07.931Z,7.56
2019-03-27T06:35:08.020Z,7.63
2019-03-27T06:36:08.111Z,7.77
2019-03-27T06:37:08.197Z,7.77
2019-03-27T06:38:08.307Z,7.78
2019-03-27T06:39:08.401Z,7.82
2019-03-27T06:40:08.482Z,7.81
2019-03-27T06:41:08.585Z,7.84
2019-03-27T06:42:08.675Z,7.82
2019-03-27T06:43:08.782Z,7.89
2019-03-27T06:44:08.840Z,7.97
2019-03-27T06:45:08.929Z,8.07
2019-03-27T06:46:09.019Z,8.07
2019-03-27T06:47:09.094Z,8.00
2019-03-27T06:48:09.203Z,8.14
2019-03-27T06:49:09.289Z,8.12
2019-03-27T06:50:09.376Z,8.12
2019-03-27T06:51:09.481Z,8.17
2019-03-27T06:52:09.589Z,8.14
2019-03-27T06:53:09.669Z,8.11
2019-03-27T06:54:09.755Z,8.14
2019-03-27T06:55:09.842Z,8.07
2019-03-27T06:56:09.931Z,8.21
2019-03-27T06:57:10.024Z,8.11
2019-03-27T06:58:10.113Z,8.08
2019-03-27T06:59:10.200Z,8.18
2019-03-27T07:00:10.298Z,8.22
2019-03-27T07:01:10.377Z,8.35
2019-03-27T07:02:10.469Z,8.36
2019-03-27T07:03:10.549Z,8.30
2019-03-27T07:04:11.094Z,8.33
2019-03-27T07:05:10.756Z,8.39
2019-03-27T07:06:10.801Z,8.32
2019-03-27T07:07:10.896Z,8.33
2019-03-27T07:08:10.981Z,8.48
2019-03-27T07:09:11.070Z,8.50
2019-03-27T07:10:11.161Z,8.54
2019-03-27T07:11:11.254Z,8.63
2019-03-27T07:12:21.128Z,8.60
2019-03-27T07:13:11.459Z,8.62
2019-03-27T07:14:11.513Z,8.54
2019-03-27T07:15:11.604Z,8.62
2019-03-27T07:16:11.690Z,8.60
2019-03-27T07:17:11.779Z,8.55
2019-03-27T07:18:11.879Z,8.60
2019-03-27T07:19:11.959Z,8.83
2019-03-27T07:20:12.049Z,8.71
2019-03-27T07:21:12.139Z,8.71
2019-03-27T07:22:12.231Z,8.79
2019-03-27T07:23:12.321Z,8.73
2019-03-27T07:24:12.412Z,8.86
2019-03-27T07:25:12.506Z,8.84
2019-03-27T07:26:12.577Z,8.88
2019-03-27T07:27:12.675Z,8.91
2019-03-27T07:28:12.762Z,8.91
2019-03-27T07:29:12.852Z,8.90
2019-03-27T07:30:12.944Z,8.87
2019-03-27T07:31:13.033Z,8.96
2019-03-27T07:32:13.122Z,8.90
2019-03-27T07:33:13.225Z,8.91
2019-03-27T07:34:13.302Z,8.93
2019-03-27T07:35:13.395Z,8.97
2019-03-27T07:36:13.488Z,8.87
2019-03-27T07:37:13.601Z,8.91
2019-03-27T07:38:13.712Z,8.90
2019-03-27T07:39:13.796Z,8.86
2019-03-27T07:40:13.887Z,8.91
2019-03-27T07:41:13.975Z,8.93
2019-03-27T07:42:14.074Z,8.91
2019-03-27T07:43:14.164Z,8.91
2019-03-27T07:44:14.251Z,9.01
2019-03-27T07:45:14.345Z,8.96
2019-03-27T07:46:14.437Z,9.05
2019-03-27T07:47:14.524Z,8.99
2019-03-27T07:48:14.620Z,9.05
2019-03-27T07:49:14.720Z,9.12
2019-03-27T07:50:14.795Z,9.06
2019-03-27T07:51:14.883Z,9.10
2019-03-27T07:52:14.972Z,8.99
2019-03-27T07:53:15.071Z,8.99
2019-03-27T07:54:15.151Z,9.12
2019-03-27T07:55:19.750Z,9.04
2019-03-27T07:56:15.340Z,9.21
2019-03-27T07:57:15.503Z,9.23
2019-03-27T07:58:15.612Z,9.30
2019-03-27T07:59:15.644Z,9.24
2019-03-27T08:00:15.734Z,9.20
2019-03-27T08:01:15.822Z,9.38
2019-03-27T08:02:15.912Z,9.46
2019-03-27T08:03:16.000Z,9.46
2019-03-27T08:04:16.092Z,9.49
2019-03-27T08:05:16.184Z,9.38
2019-03-27T08:06:16.269Z,9.46
2019-03-27T08:07:26.294Z,9.56
2019-03-27T08:08:16.445Z,9.61
2019-03-27T08:09:16.530Z,9.58
2019-03-27T08:10:16.624Z,9.70
2019-03-27T08:11:16.749Z,9.68
2019-03-27T08:12:16.813Z,9.75
2019-03-27T08:13:16.897Z,9.85
2019-03-27T08:14:16.991Z,9.76
2019-03-27T08:15:17.078Z,9.85
2019-03-27T08:16:17.174Z,9.86
2019-03-27T08:17:17.263Z,9.94
2019-03-27T08:18:17.351Z,9.89
2019-03-27T08:19:17.444Z,9.82
2019-03-27T08:20:17.551Z,9.91
2019-03-27T08:21:17.636Z,9.85
2019-03-27T08:22:17.721Z,9.91
2019-03-27T08:23:17.830Z,9.81
2019-03-27T08:24:17.899Z,9.89
2019-03-27T08:25:18.082Z,9.96
2019-03-27T08:26:18.080Z,10.01
2019-03-27T08:27:18.171Z,9.88
2019-03-27T08:28:18.262Z,9.88
2019-03-27T08:29:18.352Z,9.85
2019-03-27T08:30:18.440Z,10.00
2019-03-27T08:31:18.527Z,10.00
2019-03-27T08:32:18.607Z,9.99
2019-03-27T08:33:18.714Z,9.97
2019-03-27T08:34:18.797Z,9.89
2019-03-27T08:35:18.885Z,9.91
2019-03-27T08:36:18.976Z,10.00
2019-03-27T08:37:19.066Z,10.12
2019-03-27T08:38:19.160Z,10.19
2019-03-27T08:39:19.248Z,10.19
2019-03-27T08:40:19.336Z,10.34
2019-03-27T08:41:19.437Z,10.39
2019-03-27T08:42:19.517Z,10.39
2019-03-27T08:43:21.897Z,10.43
2019-03-27T08:44:19.697Z,10.46
2019-03-27T08:45:19.817Z,10.52
2019-03-27T08:46:19.891Z,10.60
2019-03-27T08:47:19.982Z,10.65
2019-03-27T08:48:20.074Z,10.68
2019-03-27T08:49:22.114Z,10.66
2019-03-27T08:50:20.256Z,10.63
2019-03-27T08:51:20.345Z,10.77
2019-03-27T08:52:20.430Z,10.81
2019-03-27T08:53:20.516Z,10.84
2019-03-27T08:54:20.716Z,10.94
2019-03-27T08:55:20.723Z,11.01
2019-03-27T08:56:20.901Z,11.07
2019-03-27T08:57:20.891Z,11.21
2019-03-27T08:58:20.983Z,11.28
2019-03-27T08:59:21.074Z,11.25
2019-03-27T09:00:21.496Z,11.24
2019-03-27T09:01:21.256Z,11.29
2019-03-27T09:02:21.346Z,11.34
2019-03-27T09:03:21.437Z,11.36
2019-03-27T09:04:21.540Z,11.43
2019-03-27T09:05:21.620Z,11.49
2019-03-27T09:06:33.003Z,11.44
2019-03-27T09:07:21.800Z,11.61
2019-03-27T09:08:21.895Z,11.64
2019-03-27T09:09:21.989Z,11.67
2019-03-27T09:10:22.080Z,11.59
2019-03-27T09:11:22.188Z,11.70
2019-03-27T09:12:22.252Z,11.72
2019-03-27T09:13:22.341Z,11.80
2019-03-27T09:14:22.433Z,11.78
2019-03-27T09:15:22.552Z,11.85
2019-03-27T09:16:22.616Z,11.75
2019-03-27T09:17:22.704Z,11.82
2019-03-27T09:18:22.796Z,11.80
2019-03-27T09:19:35.125Z,11.97
2019-03-27T09:20:22.976Z,11.90
2019-03-27T09:21:23.070Z,12.04
2019-03-27T09:22:23.160Z,11.90
2019-03-27T09:23:23.260Z,12.16
2019-03-27T09:24:23.351Z,12.11
2019-03-27T09:25:23.457Z,12.12
2019-03-27T09:26:23.530Z,12.20
2019-03-27T09:27:23.621Z,12.41
2019-03-27T09:28:23.716Z,12.37
2019-03-27T09:29:23.806Z,12.24
2019-03-27T09:30:23.893Z,12.41
2019-03-27T09:31:23.983Z,12.39
2019-03-27T09:32:24.075Z,12.34
2019-03-27T09:33:24.169Z,12.33
2019-03-27T09:34:24.261Z,12.45
2019-03-27T09:35:24.353Z,12.57
2019-03-27T09:36:24.445Z,12.54
2019-03-27T09:37:24.540Z,12.46
2019-03-27T09:38:24.636Z,12.59
2019-03-27T09:39:24.727Z,12.60
2019-03-27T09:40:24.818Z,12.62
2019-03-27T09:41:24.911Z,12.67
2019-03-27T09:42:25.003Z,12.56
2019-03-27T09:43:25.099Z,12.29
2019-03-27T09:44:25.188Z,12.05
2019-03-27T09:45:25.284Z,11.96
2019-03-27T09:46:25.377Z,12.15
2019-03-27T09:47:25.482Z,12.13
2019-03-27T09:48:25.605Z,12.15
2019-03-27T09:49:25.666Z,12.38
2019-03-27T09:50:25.754Z,12.34
2019-03-27T09:51:25.844Z,12.54
2019-03-27T09:52:25.937Z,12.52
2019-03-27T09:53:26.041Z,12.62
2019-03-27T09:54:26.129Z,12.42
2019-03-27T09:55:26.227Z,12.39
2019-03-27T09:56:26.318Z,12.49
2019-03-27T09:57:26.410Z,12.60
2019-03-27T09:58:26.504Z,12.81
2019-03-27T09:59:26.579Z,12.88
2019-03-27T10:00:26.698Z,13.11
2019-03-27T10:01:26.779Z,13.09
2019-03-27T10:02:26.875Z,13.20
2019-03-27T10:03:26.966Z,13.20
2019-03-27T10:04:27.062Z,13.33
2019-03-27T10:05:27.152Z,13.27
2019-03-27T10:06:27.248Z,12.93
2019-03-27T10:07:27.342Z,12.87
2019-03-27T10:08:27.443Z,12.88
2019-03-27T10:09:27.535Z,12.96
2019-03-27T10:10:27.614Z,12.99
2019-03-27T10:11:27.716Z,13.07
2019-03-27T10:12:27.807Z,13.17
2019-03-27T10:13:27.900Z,13.33
2019-03-27T10:14:27.992Z,13.41
2019-03-27T10:15:28.088Z,13.40
2019-03-27T10:16:28.171Z,13.46
2019-03-27T10:17:28.264Z,13.44
2019-03-27T10:18:28.360Z,13.58
2019-03-27T10:19:28.451Z,13.52
2019-03-27T10:20:28.546Z,13.63
2019-03-27T10:21:28.645Z,13.73
2019-03-27T10:22:28.757Z,13.79
2019-03-27T10:23:28.909Z,13.74
2019-03-27T10:24:28.888Z,13.99
2019-03-27T10:25:28.960Z,13.99
2019-03-27T10:26:29.055Z,14.14
2019-03-27T10:27:29.145Z,14.09
2019-03-27T10:28:29.241Z,14.14
2019-03-27T10:29:29.335Z,14.21
2019-03-27T10:30:29.451Z,14.20
2019-03-27T10:31:29.519Z,14.27
2019-03-27T10:32:29.597Z,14.27
2019-03-27T10:33:29.683Z,14.34
2019-03-27T10:34:29.779Z,14.29
2019-03-27T10:35:29.874Z,14.44
2019-03-27T10:36:29.958Z,14.37
2019-03-27T10:37:30.050Z,13.70
2019-03-27T10:38:30.145Z,13.61
2019-03-27T10:39:30.236Z,13.56
2019-03-27T10:40:30.325Z,13.61
2019-03-27T10:41:30.418Z,13.58
2019-03-27T10:42:30.513Z,13.71
2019-03-27T10:43:30.607Z,13.84
2019-03-27T10:44:30.908Z,13.65
2019-03-27T10:45:30.906Z,13.73
2019-03-27T10:46:30.907Z,13.92
2019-03-27T10:47:31.005Z,13.98
2019-03-27T10:48:31.100Z,13.94
2019-03-27T10:49:34.243Z,13.92
2019-03-27T10:50:31.286Z,14.10
2019-03-27T10:51:31.383Z,13.83
2019-03-27T10:52:31.479Z,14.04
2019-03-27T10:53:31.575Z,13.94
2019-03-27T10:54:31.665Z,14.02
2019-03-27T10:55:34.534Z,14.25
2019-03-27T10:56:31.853Z,14.28
2019-03-27T10:57:31.949Z,14.47
2019-03-27T10:58:32.044Z,14.60
2019-03-27T10:59:32.139Z,14.61
2019-03-27T11:00:32.231Z,14.57
2019-03-27T11:01:32.336Z,14.68
2019-03-27T11:02:32.419Z,14.57
2019-03-27T11:03:32.513Z,14.57
2019-03-27T11:04:32.608Z,14.56
2019-03-27T11:05:32.737Z,14.72
2019-03-27T11:06:32.783Z,14.71
2019-03-27T11:07:32.893Z,14.62
2019-03-27T11:08:32.989Z,14.64
2019-03-27T11:09:33.085Z,14.64
2019-03-27T11:10:33.181Z,14.67
2019-03-27T11:11:33.276Z,14.57
2019-03-27T11:12:33.368Z,14.60
2019-03-27T11:13:34.516Z,14.61
2019-03-27T11:14:38.191Z,14.57
2019-03-27T11:15:33.668Z,14.57
2019-03-27T11:16:33.766Z,14.62
2019-03-27T11:17:33.864Z,14.64
2019-03-27T11:18:33.960Z,14.61
2019-03-27T11:19:34.055Z,14.67
2019-03-27T11:20:34.149Z,14.47
2019-03-27T11:21:34.243Z,13.87
2019-03-27T11:22:34.338Z,13.36
2019-03-27T11:23:34.433Z,12.82
2019-03-27T11:24:34.530Z,12.26
2019-03-27T11:25:34.628Z,12.24
2019-03-27T11:26:34.708Z,12.13
2019-03-27T11:27:34.834Z,12.08
2019-03-27T11:28:34.887Z,12.23
2019-03-27T11:29:34.983Z,12.31
2019-03-27T11:30:35.077Z,12.52
2019-03-27T11:31:35.171Z,12.69
2019-03-27T11:32:35.269Z,12.92
2019-03-27T11:33:35.360Z,13.07
2019-03-27T11:34:35.480Z,13.22
2019-03-27T11:35:35.541Z,13.52
2019-03-27T11:36:35.630Z,13.65
2019-03-27T11:37:35.723Z,13.69
2019-03-27T11:38:37.465Z,13.36
2019-03-27T11:39:35.911Z,13.11
2019-03-27T11:40:36.007Z,12.96
2019-03-27T11:41:36.099Z,12.92
2019-03-27T11:42:36.199Z,12.56
2019-03-27T11:43:36.286Z,12.59
2019-03-27T11:44:36.381Z,12.71
2019-03-27T11:45:36.468Z,12.89
2019-03-27T11:46:36.556Z,13.04
2019-03-27T11:47:36.748Z,13.24
2019-03-27T11:48:36.764Z,13.43
2019-03-27T11:49:36.836Z,13.55
2019-03-27T11:50:44.924Z,13.69
2019-03-27T11:51:37.034Z,13.81
2019-03-27T11:52:37.127Z,13.95
2019-03-27T11:53:37.224Z,13.47
2019-03-27T11:54:37.315Z,13.40
2019-03-27T11:55:37.417Z,13.44
2019-03-27T11:56:37.521Z,13.44
2019-03-27T11:57:37.611Z,13.44
2019-03-27T11:58:37.666Z,13.61
2019-03-27T11:59:37.762Z,13.61
2019-03-27T12:00:37.862Z,13.77
2019-03-27T12:01:42.090Z,13.56
2019-03-27T12:02:38.044Z,13.32
2019-03-27T12:03:38.139Z,13.41
2019-03-27T12:04:38.255Z,13.44
2019-03-27T12:05:38.346Z,13.41
2019-03-27T12:06:38.440Z,13.22
2019-03-27T12:07:38.533Z,13.11
2019-03-27T12:08:38.631Z,13.24
2019-03-27T12:09:38.728Z,13.27
2019-03-27T12:10:38.820Z,13.47
2019-03-27T12:11:38.917Z,13.65
2019-03-27T12:12:39.010Z,13.67
2019-03-27T12:13:39.104Z,13.95
2019-03-27T12:14:39.199Z,14.14
2019-03-27T12:15:39.296Z,14.32
2019-03-27T12:16:39.387Z,14.46
2019-03-27T12:17:39.503Z,14.57
2019-03-27T12:18:39.575Z,14.74
2019-03-27T12:19:39.666Z,14.87
2019-03-27T12:20:39.758Z,15.01
2019-03-27T12:21:39.851Z,14.98
2019-03-27T12:22:39.945Z,15.12
2019-03-27T12:23:40.082Z,15.17
2019-03-27T12:24:40.146Z,14.90
2019-03-27T12:25:40.242Z,14.84
2019-03-27T12:26:40.335Z,14.31
2019-03-27T12:27:40.426Z,14.31
2019-03-27T12:28:40.519Z,14.19
2019-03-27T12:29:40.662Z,14.25
2019-03-27T12:30:40.799Z,14.21
2019-03-27T12:31:40.851Z,14.12
2019-03-27T12:32:40.946Z,13.81
2019-03-27T12:33:41.037Z,13.80
2019-03-27T12:34:41.152Z,13.46
2019-03-27T12:35:41.259Z,13.43
2019-03-27T12:36:41.343Z,13.44
2019-03-27T12:37:41.469Z,13.37
2019-03-27T12:38:41.544Z,13.14
2019-03-27T12:39:41.649Z,13.02
2019-03-27T12:40:41.742Z,13.12
2019-03-27T12:41:41.837Z,13.32
2019-03-27T12:42:41.930Z,13.24
2019-03-27T12:43:42.026Z,13.18
2019-03-27T12:44:42.119Z,13.21
2019-03-27T12:45:42.217Z,13.30
2019-03-27T12:46:42.306Z,13.56
2019-03-27T12:47:42.406Z,13.49
2019-03-27T12:48:42.497Z,13.52
2019-03-27T12:49:42.599Z,13.43
2019-03-27T12:50:44.376Z,13.46
2019-03-27T12:51:42.825Z,13.37
2019-03-27T12:52:42.922Z,13.07
2019-03-27T12:53:43.004Z,13.21
2019-03-27T12:54:43.099Z,13.14
2019-03-27T12:55:43.194Z,13.20
2019-03-27T12:56:43.288Z,13.11
2019-03-27T12:57:43.400Z,13.20
2019-03-27T12:58:43.457Z,13.30
2019-03-27T12:59:43.575Z,13.33
2019-03-27T13:00:43.638Z,13.38
2019-03-27T13:01:43.732Z,13.47
2019-03-27T13:02:43.827Z,13.43
2019-03-27T13:03:44.588Z,13.17
2019-03-27T13:04:44.016Z,13.07
2019-03-27T13:05:44.111Z,13.09
2019-03-27T13:06:44.206Z,12.99
2019-03-27T13:07:50.003Z,12.89
2019-03-27T13:08:44.396Z,12.84
2019-03-27T13:09:44.491Z,12.81
2019-03-27T13:10:44.584Z,12.85
2019-03-27T13:11:44.701Z,12.96
2019-03-27T13:12:44.809Z,13.00
2019-03-27T13:13:44.846Z,13.04